sensor_id;sensor_type;location;lat;lon;timestamp;P1;durP1;ratioP1;P2;durP2;ratioP2
51020;SDS011;38907;45.562;8.856;2023-12-22T00:07:13;24.20;;;19.00;;
51020;SDS011;38907;45.562;8.856;2023-12-22T00:12:15;25.42;;;18.52;;
51020;SDS011;38907;45.562;8.856;2023-12-22T00:17:16;22.55;;;18.58;;
51020;SDS011;38907;45.562;8.856;2023-12-22T00:22:20;27.58;;;18.75;;
51020;SDS011;38907;45.562;8.856;2023-12-22T00:27:21;25.27;;;18.73;;
51020;SDS011;38907;45.562;8.856;2023-12-22T00:32:23;24.35;;;18.80;;
51020;SDS011;38907;45.562;8.856;2023-12-22T00:37:26;22.77;;;18.20;;
51020;SDS011;38907;45.562;8.856;2023-12-22T00:42:28;24.38;;;18.77;;
51020;SDS011;38907;45.562;8.856;2023-12-22T00:47:30;24.65;;;19.98;;
51020;SDS011;38907;45.562;8.856;2023-12-22T00:52:36;23.17;;;17.95;;
51020;SDS011;38907;45.562;8.856;2023-12-22T00:57:38;25.90;;;19.50;;
51020;SDS011;38907;45.562;8.856;2023-12-22T01:02:39;29.13;;;19.52;;
51020;SDS011;38907;45.562;8.856;2023-12-22T01:07:43;25.17;;;19.63;;
51020;SDS011;38907;45.562;8.856;2023-12-22T01:12:44;23.65;;;18.40;;
51020;SDS011;38907;45.562;8.856;2023-12-22T01:17:46;22.75;;;17.08;;
51020;SDS011;38907;45.562;8.856;2023-12-22T01:22:49;25.75;;;18.95;;
51020;SDS011;38907;45.562;8.856;2023-12-22T01:27:51;25.05;;;20.10;;
51020;SDS011;38907;45.562;8.856;2023-12-22T01:32:53;23.88;;;18.38;;
51020;SDS011;38907;45.562;8.856;2023-12-22T01:37:56;22.58;;;18.90;;
51020;SDS011;38907;45.562;8.856;2023-12-22T01:42:58;25.55;;;19.25;;
51020;SDS011;38907;45.562;8.856;2023-12-22T01:48:02;29.98;;;19.42;;
51020;SDS011;38907;45.562;8.856;2023-12-22T01:53:06;23.15;;;18.58;;
51020;SDS011;38907;45.562;8.856;2023-12-22T01:58:08;22.38;;;18.67;;
51020;SDS011;38907;45.562;8.856;2023-12-22T02:03:11;24.53;;;18.80;;
51020;SDS011;38907;45.562;8.856;2023-12-22T02:08:15;26.67;;;20.13;;
51020;SDS011;38907;45.562;8.856;2023-12-22T02:13:19;25.38;;;18.98;;
51020;SDS011;38907;45.562;8.856;2023-12-22T02:18:21;24.38;;;19.73;;
51020;SDS011;38907;45.562;8.856;2023-12-22T02:23:29;26.05;;;19.10;;
51020;SDS011;38907;45.562;8.856;2023-12-22T02:28:30;23.80;;;18.08;;
51020;SDS011;38907;45.562;8.856;2023-12-22T02:33:33;24.40;;;19.15;;
51020;SDS011;38907;45.562;8.856;2023-12-22T02:43:41;22.98;;;17.25;;
51020;SDS011;38907;45.562;8.856;2023-12-22T02:48:43;19.95;;;16.38;;
51020;SDS011;38907;45.562;8.856;2023-12-22T02:53:46;22.23;;;16.88;;
51020;SDS011;38907;45.562;8.856;2023-12-22T02:58:48;22.05;;;17.85;;
51020;SDS011;38907;45.562;8.856;2023-12-22T03:03:50;21.77;;;17.60;;
51020;SDS011;38907;45.562;8.856;2023-12-22T03:08:53;20.17;;;17.42;;
51020;SDS011;38907;45.562;8.856;2023-12-22T03:13:55;23.80;;;18.63;;
51020;SDS011;38907;45.562;8.856;2023-12-22T03:18:57;25.75;;;18.88;;
51020;SDS011;38907;45.562;8.856;2023-12-22T03:24:00;23.38;;;19.08;;
51020;SDS011;38907;45.562;8.856;2023-12-22T03:29:02;23.73;;;19.90;;
51020;SDS011;38907;45.562;8.856;2023-12-22T03:34:03;21.52;;;18.92;;
51020;SDS011;38907;45.562;8.856;2023-12-22T03:39:07;25.10;;;19.77;;
51020;SDS011;38907;45.562;8.856;2023-12-22T03:44:09;24.80;;;18.90;;
51020;SDS011;38907;45.562;8.856;2023-12-22T03:49:11;24.13;;;18.17;;
51020;SDS011;38907;45.562;8.856;2023-12-22T03:54:14;21.85;;;18.67;;
51020;SDS011;38907;45.562;8.856;2023-12-22T03:59:17;25.50;;;19.38;;
51020;SDS011;38907;45.562;8.856;2023-12-22T04:04:20;22.55;;;17.50;;
51020;SDS011;38907;45.562;8.856;2023-12-22T04:09:24;22.73;;;17.27;;
51020;SDS011;38907;45.562;8.856;2023-12-22T04:14:26;22.77;;;17.35;;
51020;SDS011;38907;45.562;8.856;2023-12-22T04:19:27;21.23;;;16.65;;
51020;SDS011;38907;45.562;8.856;2023-12-22T04:24:31;23.33;;;17.48;;
51020;SDS011;38907;45.562;8.856;2023-12-22T04:29:32;26.35;;;18.50;;
51020;SDS011;38907;45.562;8.856;2023-12-22T04:34:34;20.17;;;16.27;;
51020;SDS011;38907;45.562;8.856;2023-12-22T04:39:37;18.55;;;15.45;;
51020;SDS011;38907;45.562;8.856;2023-12-22T04:44:39;17.85;;;13.50;;
51020;SDS011;38907;45.562;8.856;2023-12-22T04:49:41;17.63;;;13.35;;
51020;SDS011;38907;45.562;8.856;2023-12-22T04:54:45;9.80;;;7.57;;
51020;SDS011;38907;45.562;8.856;2023-12-22T04:59:47;6.10;;;5.50;;
51020;SDS011;38907;45.562;8.856;2023-12-22T05:04:49;8.27;;;5.22;;
51020;SDS011;38907;45.562;8.856;2023-12-22T05:09:52;5.43;;;3.47;;
51020;SDS011;38907;45.562;8.856;2023-12-22T05:14:55;4.68;;;3.40;;
51020;SDS011;38907;45.562;8.856;2023-12-22T05:19:57;5.70;;;4.25;;
51020;SDS011;38907;45.562;8.856;2023-12-22T05:25:00;5.68;;;4.35;;
51020;SDS011;38907;45.562;8.856;2023-12-22T05:30:02;6.85;;;4.03;;
51020;SDS011;38907;45.562;8.856;2023-12-22T05:35:05;9.00;;;4.90;;
51020;SDS011;38907;45.562;8.856;2023-12-22T05:40:09;7.43;;;4.82;;
51020;SDS011;38907;45.562;8.856;2023-12-22T05:45:11;5.18;;;4.68;;
51020;SDS011;38907;45.562;8.856;2023-12-22T05:50:15;7.03;;;5.70;;
51020;SDS011;38907;45.562;8.856;2023-12-22T05:55:18;8.30;;;6.35;;
51020;SDS011;38907;45.562;8.856;2023-12-22T06:05:22;5.68;;;4.50;;
51020;SDS011;38907;45.562;8.856;2023-12-22T06:10:25;7.05;;;3.40;;
51020;SDS011;38907;45.562;8.856;2023-12-22T06:15:27;5.93;;;2.45;;
51020;SDS011;38907;45.562;8.856;2023-12-22T06:20:29;9.55;;;6.75;;
51020;SDS011;38907;45.562;8.856;2023-12-22T06:25:32;5.40;;;2.10;;
51020;SDS011;38907;45.562;8.856;2023-12-22T06:30:34;3.35;;;1.70;;
51020;SDS011;38907;45.562;8.856;2023-12-22T06:35:36;4.68;;;2.28;;
51020;SDS011;38907;45.562;8.856;2023-12-22T06:40:42;5.03;;;2.00;;
51020;SDS011;38907;45.562;8.856;2023-12-22T06:45:46;4.82;;;2.75;;
51020;SDS011;38907;45.562;8.856;2023-12-22T06:50:48;6.78;;;3.90;;
51020;SDS011;38907;45.562;8.856;2023-12-22T06:55:51;5.95;;;4.45;;
51020;SDS011;38907;45.562;8.856;2023-12-22T07:00:53;4.40;;;3.30;;
51020;SDS011;38907;45.562;8.856;2023-12-22T07:05:56;5.95;;;4.03;;
51020;SDS011;38907;45.562;8.856;2023-12-22T07:10:59;6.30;;;4.82;;
51020;SDS011;38907;45.562;8.856;2023-12-22T07:16:01;6.75;;;4.90;;
51020;SDS011;38907;45.562;8.856;2023-12-22T07:21:03;5.85;;;3.72;;
51020;SDS011;38907;45.562;8.856;2023-12-22T07:26:06;8.38;;;4.15;;
51020;SDS011;38907;45.562;8.856;2023-12-22T07:31:08;9.13;;;4.10;;
51020;SDS011;38907;45.562;8.856;2023-12-22T07:36:10;14.68;;;4.40;;
51020;SDS011;38907;45.562;8.856;2023-12-22T07:41:13;8.50;;;4.97;;
51020;SDS011;38907;45.562;8.856;2023-12-22T07:46:18;27.00;;;19.55;;
51020;SDS011;38907;45.562;8.856;2023-12-22T07:51:20;12.48;;;9.02;;
51020;SDS011;38907;45.562;8.856;2023-12-22T07:56:24;6.72;;;3.50;;
51020;SDS011;38907;45.562;8.856;2023-12-22T08:01:25;5.72;;;3.70;;
51020;SDS011;38907;45.562;8.856;2023-12-22T08:06:27;6.60;;;0.77;;
51020;SDS011;38907;45.562;8.856;2023-12-22T08:11:30;3.90;;;0.80;;
51020;SDS011;38907;45.562;8.856;2023-12-22T08:16:32;1.42;;;0.40;;
51020;SDS011;38907;45.562;8.856;2023-12-22T08:21:34;2.22;;;0.40;;
51020;SDS011;38907;45.562;8.856;2023-12-22T08:26:37;3.10;;;0.55;;
51020;SDS011;38907;45.562;8.856;2023-12-22T08:31:40;4.00;;;0.47;;
51020;SDS011;38907;45.562;8.856;2023-12-22T08:36:41;0.55;;;0.40;;
51020;SDS011;38907;45.562;8.856;2023-12-22T08:41:45;2.35;;;1.10;;
51020;SDS011;38907;45.562;8.856;2023-12-22T08:46:48;1.10;;;0.60;;
51020;SDS011;38907;45.562;8.856;2023-12-22T08:51:50;6.55;;;0.45;;
51020;SDS011;38907;45.562;8.856;2023-12-22T08:56:53;0.50;;;0.38;;
51020;SDS011;38907;45.562;8.856;2023-12-22T09:01:55;4.57;;;1.15;;
51020;SDS011;38907;45.562;8.856;2023-12-22T09:06:56;3.65;;;0.57;;
51020;SDS011;38907;45.562;8.856;2023-12-22T09:12:00;28.70;;;10.35;;
51020;SDS011;38907;45.562;8.856;2023-12-22T09:17:02;27.75;;;10.02;;
51020;SDS011;38907;45.562;8.856;2023-12-22T09:22:04;3.75;;;0.95;;
51020;SDS011;38907;45.562;8.856;2023-12-22T09:27:07;5.78;;;0.40;;
51020;SDS011;38907;45.562;8.856;2023-12-22T09:37:11;2.45;;;0.60;;
51020;SDS011;38907;45.562;8.856;2023-12-22T09:42:14;0.40;;;0.40;;
51020;SDS011;38907;45.562;8.856;2023-12-22T09:52:18;0.30;;;0.30;;
51020;SDS011;38907;45.562;8.856;2023-12-22T09:57:22;2.15;;;0.30;;
51020;SDS011;38907;45.562;8.856;2023-12-22T10:02:25;0.75;;;0.40;;
51020;SDS011;38907;45.562;8.856;2023-12-22T10:07:29;3.38;;;2.30;;
51020;SDS011;38907;45.562;8.856;2023-12-22T10:12:35;0.85;;;0.50;;
51020;SDS011;38907;45.562;8.856;2023-12-22T10:17:39;1.88;;;1.30;;
51020;SDS011;38907;45.562;8.856;2023-12-22T10:22:42;2.00;;;1.40;;
51020;SDS011;38907;45.562;8.856;2023-12-22T10:27:45;6.75;;;4.97;;
51020;SDS011;38907;45.562;8.856;2023-12-22T10:32:47;5.80;;;1.42;;
51020;SDS011;38907;45.562;8.856;2023-12-22T10:37:48;2.60;;;0.50;;
51020;SDS011;38907;45.562;8.856;2023-12-22T10:42:54;1.23;;;0.88;;
51020;SDS011;38907;45.562;8.856;2023-12-22T10:52:59;0.57;;;0.57;;
51020;SDS011;38907;45.562;8.856;2023-12-22T10:58:03;0.85;;;0.55;;
51020;SDS011;38907;45.562;8.856;2023-12-22T11:03:07;2.22;;;0.50;;
51020;SDS011;38907;45.562;8.856;2023-12-22T11:08:14;3.85;;;0.60;;
51020;SDS011;38907;45.562;8.856;2023-12-22T11:13:20;1.17;;;1.08;;
51020;SDS011;38907;45.562;8.856;2023-12-22T11:18:23;3.40;;;0.60;;
51020;SDS011;38907;45.562;8.856;2023-12-22T11:23:25;1.17;;;0.40;;
51020;SDS011;38907;45.562;8.856;2023-12-22T11:28:30;0.82;;;0.52;;
51020;SDS011;38907;45.562;8.856;2023-12-22T11:33:33;2.50;;;0.80;;
51020;SDS011;38907;45.562;8.856;2023-12-22T11:38:37;1.63;;;0.60;;
51020;SDS011;38907;45.562;8.856;2023-12-22T11:43:41;2.63;;;0.60;;
51020;SDS011;38907;45.562;8.856;2023-12-22T11:48:47;1.55;;;0.50;;
51020;SDS011;38907;45.562;8.856;2023-12-22T11:53:49;0.47;;;0.40;;
51020;SDS011;38907;45.562;8.856;2023-12-22T11:58:53;0.85;;;0.30;;
51020;SDS011;38907;45.562;8.856;2023-12-22T12:03:56;0.43;;;0.20;;
51020;SDS011;38907;45.562;8.856;2023-12-22T12:09:00;0.90;;;0.57;;
51020;SDS011;38907;45.562;8.856;2023-12-22T12:14:07;0.65;;;0.55;;
51020;SDS011;38907;45.562;8.856;2023-12-22T12:19:13;0.93;;;0.55;;
51020;SDS011;38907;45.562;8.856;2023-12-22T12:24:15;2.92;;;0.50;;
51020;SDS011;38907;45.562;8.856;2023-12-22T12:34:22;1.38;;;0.40;;
51020;SDS011;38907;45.562;8.856;2023-12-22T12:39:24;1.65;;;0.40;;
51020;SDS011;38907;45.562;8.856;2023-12-22T12:44:32;1.75;;;0.40;;
51020;SDS011;38907;45.562;8.856;2023-12-22T12:49:36;2.85;;;0.45;;
51020;SDS011;38907;45.562;8.856;2023-12-22T12:54:37;0.30;;;0.30;;
51020;SDS011;38907;45.562;8.856;2023-12-22T12:59:41;1.05;;;0.68;;
51020;SDS011;38907;45.562;8.856;2023-12-22T13:04:46;0.50;;;0.40;;
51020;SDS011;38907;45.562;8.856;2023-12-22T13:09:48;1.60;;;0.40;;
51020;SDS011;38907;45.562;8.856;2023-12-22T13:14:51;2.55;;;0.40;;
51020;SDS011;38907;45.562;8.856;2023-12-22T13:19:53;2.10;;;0.40;;
51020;SDS011;38907;45.562;8.856;2023-12-22T13:24:55;3.47;;;2.17;;
51020;SDS011;38907;45.562;8.856;2023-12-22T13:29:59;1.57;;;0.30;;
51020;SDS011;38907;45.562;8.856;2023-12-22T13:40:06;0.70;;;0.30;;
51020;SDS011;38907;45.562;8.856;2023-12-22T13:45:11;1.63;;;0.68;;
51020;SDS011;38907;45.562;8.856;2023-12-22T13:50:13;3.28;;;0.65;;
51020;SDS011;38907;45.562;8.856;2023-12-22T13:55:16;3.13;;;0.68;;
51020;SDS011;38907;45.562;8.856;2023-12-22T14:00:26;1.17;;;0.70;;
51020;SDS011;38907;45.562;8.856;2023-12-22T14:05:29;0.68;;;0.50;;
51020;SDS011;38907;45.562;8.856;2023-12-22T14:10:31;4.18;;;0.70;;
51020;SDS011;38907;45.562;8.856;2023-12-22T14:15:34;1.50;;;0.50;;
51020;SDS011;38907;45.562;8.856;2023-12-22T14:20:36;3.78;;;0.60;;
51020;SDS011;38907;45.562;8.856;2023-12-22T14:25:38;2.47;;;0.40;;
51020;SDS011;38907;45.562;8.856;2023-12-22T14:30:41;1.98;;;0.63;;
51020;SDS011;38907;45.562;8.856;2023-12-22T14:35:43;4.03;;;0.60;;
51020;SDS011;38907;45.562;8.856;2023-12-22T14:40:45;1.55;;;0.60;;
51020;SDS011;38907;45.562;8.856;2023-12-22T14:45:48;4.85;;;1.08;;
51020;SDS011;38907;45.562;8.856;2023-12-22T14:50:50;3.75;;;1.10;;
51020;SDS011;38907;45.562;8.856;2023-12-22T14:55:52;1.17;;;0.90;;
51020;SDS011;38907;45.562;8.856;2023-12-22T15:00:58;5.20;;;1.00;;
51020;SDS011;38907;45.562;8.856;2023-12-22T15:11:03;1.60;;;0.80;;
51020;SDS011;38907;45.562;8.856;2023-12-22T15:16:07;2.13;;;0.70;;
51020;SDS011;38907;45.562;8.856;2023-12-22T15:21:09;2.78;;;0.90;;
51020;SDS011;38907;45.562;8.856;2023-12-22T15:26:24;12.85;;;9.40;;
51020;SDS011;38907;45.562;8.856;2023-12-22T15:31:28;2.42;;;1.60;;
51020;SDS011;38907;45.562;8.856;2023-12-22T15:36:31;3.03;;;1.40;;
51020;SDS011;38907;45.562;8.856;2023-12-22T15:41:33;3.40;;;2.00;;
51020;SDS011;38907;45.562;8.856;2023-12-22T15:46:36;5.97;;;2.40;;
51020;SDS011;38907;45.562;8.856;2023-12-22T15:51:38;3.38;;;2.50;;
51020;SDS011;38907;45.562;8.856;2023-12-22T15:56:40;4.75;;;2.50;;
51020;SDS011;38907;45.562;8.856;2023-12-22T16:01:43;3.13;;;1.90;;
51020;SDS011;38907;45.562;8.856;2023-12-22T16:06:45;4.68;;;2.10;;
51020;SDS011;38907;45.562;8.856;2023-12-22T16:11:47;6.18;;;1.67;;
51020;SDS011;38907;45.562;8.856;2023-12-22T16:16:53;4.82;;;1.75;;
51020;SDS011;38907;45.562;8.856;2023-12-22T16:21:55;3.20;;;1.73;;
51020;SDS011;38907;45.562;8.856;2023-12-22T16:26:58;8.77;;;5.30;;
51020;SDS011;38907;45.562;8.856;2023-12-22T16:32:01;10.20;;;5.13;;
51020;SDS011;38907;45.562;8.856;2023-12-22T16:42:06;38.90;;;16.23;;
51020;SDS011;38907;45.562;8.856;2023-12-22T16:47:10;18.40;;;11.85;;
51020;SDS011;38907;45.562;8.856;2023-12-22T16:52:12;12.98;;;8.50;;
51020;SDS011;38907;45.562;8.856;2023-12-22T16:57:14;8.25;;;5.50;;
51020;SDS011;38907;45.562;8.856;2023-12-22T17:02:17;4.68;;;2.40;;
51020;SDS011;38907;45.562;8.856;2023-12-22T17:07:19;6.78;;;4.30;;
51020;SDS011;38907;45.562;8.856;2023-12-22T17:12:20;10.10;;;4.50;;
51020;SDS011;38907;45.562;8.856;2023-12-22T17:17:23;12.18;;;4.25;;
51020;SDS011;38907;45.562;8.856;2023-12-22T17:22:26;9.27;;;4.32;;
51020;SDS011;38907;45.562;8.856;2023-12-22T17:27:28;13.52;;;9.80;;
51020;SDS011;38907;45.562;8.856;2023-12-22T17:32:31;21.45;;;17.67;;
51020;SDS011;38907;45.562;8.856;2023-12-22T17:37:33;13.45;;;8.50;;
51020;SDS011;38907;45.562;8.856;2023-12-22T17:42:35;11.70;;;10.50;;
51020;SDS011;38907;45.562;8.856;2023-12-22T17:47:39;10.05;;;6.20;;
51020;SDS011;38907;45.562;8.856;2023-12-22T17:52:40;8.55;;;4.72;;
51020;SDS011;38907;45.562;8.856;2023-12-22T17:57:42;7.80;;;4.40;;
51020;SDS011;38907;45.562;8.856;2023-12-22T18:02:45;20.58;;;16.45;;
51020;SDS011;38907;45.562;8.856;2023-12-22T18:07:51;9.98;;;5.97;;
51020;SDS011;38907;45.562;8.856;2023-12-22T18:12:52;15.85;;;11.05;;
51020;SDS011;38907;45.562;8.856;2023-12-22T18:17:56;16.92;;;9.90;;
51020;SDS011;38907;45.562;8.856;2023-12-22T18:22:57;22.35;;;10.43;;
51020;SDS011;38907;45.562;8.856;2023-12-22T18:27:59;17.30;;;11.27;;
51020;SDS011;38907;45.562;8.856;2023-12-22T18:33:03;22.45;;;14.27;;
51020;SDS011;38907;45.562;8.856;2023-12-22T18:38:05;19.73;;;14.30;;
51020;SDS011;38907;45.562;8.856;2023-12-22T18:43:07;15.13;;;11.68;;
51020;SDS011;38907;45.562;8.856;2023-12-22T18:48:10;15.80;;;11.65;;
51020;SDS011;38907;45.562;8.856;2023-12-22T18:53:12;16.70;;;12.82;;
51020;SDS011;38907;45.562;8.856;2023-12-22T18:58:14;10.85;;;7.45;;
51020;SDS011;38907;45.562;8.856;2023-12-22T19:03:20;11.02;;;8.52;;
51020;SDS011;38907;45.562;8.856;2023-12-22T19:08:21;7.07;;;6.05;;
51020;SDS011;38907;45.562;8.856;2023-12-22T19:13:23;10.10;;;7.38;;
51020;SDS011;38907;45.562;8.856;2023-12-22T19:18:26;6.82;;;6.13;;
51020;SDS011;38907;45.562;8.856;2023-12-22T19:23:28;13.90;;;9.70;;
51020;SDS011;38907;45.562;8.856;2023-12-22T19:28:30;20.52;;;13.32;;
51020;SDS011;38907;45.562;8.856;2023-12-22T19:33:33;6.53;;;4.47;;
51020;SDS011;38907;45.562;8.856;2023-12-22T19:38:35;3.15;;;1.58;;
51020;SDS011;38907;45.562;8.856;2023-12-22T19:43:37;1.63;;;1.10;;
51020;SDS011;38907;45.562;8.856;2023-12-22T19:48:40;4.28;;;1.90;;
51020;SDS011;38907;45.562;8.856;2023-12-22T19:53:42;3.80;;;2.15;;
51020;SDS011;38907;45.562;8.856;2023-12-22T19:58:43;2.53;;;1.67;;
51020;SDS011;38907;45.562;8.856;2023-12-22T20:03:47;7.40;;;3.33;;
51020;SDS011;38907;45.562;8.856;2023-12-22T20:08:48;5.05;;;3.55;;
51020;SDS011;38907;45.562;8.856;2023-12-22T20:13:50;5.03;;;3.75;;
51020;SDS011;38907;45.562;8.856;2023-12-22T20:18:53;4.28;;;2.70;;
51020;SDS011;38907;45.562;8.856;2023-12-22T20:23:56;3.92;;;2.60;;
51020;SDS011;38907;45.562;8.856;2023-12-22T20:28:58;2.92;;;2.22;;
51020;SDS011;38907;45.562;8.856;2023-12-22T20:34:00;4.25;;;3.85;;
51020;SDS011;38907;45.562;8.856;2023-12-22T20:44:04;3.42;;;2.08;;
51020;SDS011;38907;45.562;8.856;2023-12-22T20:49:07;4.45;;;2.47;;
51020;SDS011;38907;45.562;8.856;2023-12-22T20:54:09;3.65;;;2.70;;
51020;SDS011;38907;45.562;8.856;2023-12-22T20:59:10;3.92;;;2.75;;
51020;SDS011;38907;45.562;8.856;2023-12-22T21:04:14;5.35;;;2.17;;
51020;SDS011;38907;45.562;8.856;2023-12-22T21:09:17;3.67;;;2.35;;
51020;SDS011;38907;45.562;8.856;2023-12-22T21:14:19;7.27;;;5.13;;
51020;SDS011;38907;45.562;8.856;2023-12-22T21:19:22;4.05;;;2.90;;
51020;SDS011;38907;45.562;8.856;2023-12-22T21:24:24;7.15;;;2.88;;
51020;SDS011;38907;45.562;8.856;2023-12-22T21:29:26;3.72;;;3.03;;
51020;SDS011;38907;45.562;8.856;2023-12-22T21:34:29;5.82;;;2.78;;
51020;SDS011;38907;45.562;8.856;2023-12-22T21:39:31;7.45;;;4.60;;
51020;SDS011;38907;45.562;8.856;2023-12-22T21:44:33;3.60;;;3.20;;
51020;SDS011;38907;45.562;8.856;2023-12-22T21:49:41;4.38;;;3.60;;
51020;SDS011;38907;45.562;8.856;2023-12-22T21:54:43;7.07;;;3.47;;
51020;SDS011;38907;45.562;8.856;2023-12-22T21:59:45;7.22;;;4.40;;
51020;SDS011;38907;45.562;8.856;2023-12-22T22:04:49;3.97;;;3.13;;
51020;SDS011;38907;45.562;8.856;2023-12-22T22:09:51;4.20;;;2.60;;
51020;SDS011;38907;45.562;8.856;2023-12-22T22:14:53;8.05;;;3.88;;
51020;SDS011;38907;45.562;8.856;2023-12-22T22:19:56;10.07;;;4.25;;
51020;SDS011;38907;45.562;8.856;2023-12-22T22:24:57;5.95;;;4.25;;
51020;SDS011;38907;45.562;8.856;2023-12-22T22:29:59;8.50;;;3.88;;
51020;SDS011;38907;45.562;8.856;2023-12-22T22:35:03;9.93;;;4.38;;
51020;SDS011;38907;45.562;8.856;2023-12-22T22:40:06;10.32;;;6.60;;
51020;SDS011;38907;45.562;8.856;2023-12-22T22:45:10;9.73;;;4.22;;
51020;SDS011;38907;45.562;8.856;2023-12-22T22:50:14;5.55;;;4.45;;
51020;SDS011;38907;45.562;8.856;2023-12-22T22:55:16;7.75;;;4.47;;
51020;SDS011;38907;45.562;8.856;2023-12-22T23:00:18;7.30;;;4.80;;
51020;SDS011;38907;45.562;8.856;2023-12-22T23:05:29;9.32;;;5.43;;
51020;SDS011;38907;45.562;8.856;2023-12-22T23:10:35;11.80;;;6.60;;
51020;SDS011;38907;45.562;8.856;2023-12-22T23:15:37;6.55;;;5.00;;
51020;SDS011;38907;45.562;8.856;2023-12-22T23:20:40;8.95;;;4.90;;
51020;SDS011;38907;45.562;8.856;2023-12-22T23:25:42;12.57;;;6.20;;
51020;SDS011;38907;45.562;8.856;2023-12-22T23:30:46;16.08;;;8.45;;
51020;SDS011;38907;45.562;8.856;2023-12-22T23:35:49;18.02;;;9.45;;
51020;SDS011;38907;45.562;8.856;2023-12-22T23:40:51;11.45;;;6.30;;
51020;SDS011;38907;45.562;8.856;2023-12-22T23:45:53;9.77;;;6.30;;
51020;SDS011;38907;45.562;8.856;2023-12-22T23:50:59;8.10;;;4.75;;
51020;SDS011;38907;45.562;8.856;2023-12-22T23:56:01;6.70;;;4.30;;
